Time;durP1;ratioP1;P1;durP2;ratioP2;P2;SDS_P1;SDS_P2;PMS_P1;PMS_P2;Temp;Humidity;BMP_temperature;BMP_pressure;BME280_temperature;BME280_humidity;BME280_pressure;Samples;Min_cycle;Max_cycle;Signal;HPM_P1;HPM_P2
2022/12/06 00:02:26;;;;;;;1.70;1.50;;;2.40;98.20;;;;;;4999836;28;20629;-78
2022/12/06 00:04:54;;;;;;;1.77;1.67;;;2.40;98.20;;;;;;4997651;28;20552;-77
2022/12/06 00:07:21;;;;;;;1.67;1.40;;;2.40;98.20;;;;;;4995072;28;20491;-78
2022/12/06 00:09:48;;;;;;;1.80;1.70;;;2.40;98.20;;;;;;4994943;28;20461;-77
2022/12/06 00:12:14;;;;;;;1.67;1.50;;;2.40;98.20;;;;;;4992262;28;20675;-77
2022/12/06 00:14:41;;;;;;;1.63;1.40;;;2.40;98.20;;;;;;4992416;28;20912;-78
2022/12/06 00:17:08;;;;;;;1.70;1.50;;;2.40;98.20;;;;;;4991237;28;20492;-78
2022/12/06 00:19:35;;;;;;;1.70;1.53;;;2.40;98.20;;;;;;4991925;28;20488;-77
2022/12/06 00:22:03;;;;;;;1.67;1.43;;;2.40;98.20;;;;;;4989872;28;20461;-78
2022/12/06 00:24:30;;;;;;;1.67;1.50;;;2.50;98.20;;;;;;4991554;28;20464;-78
2022/12/06 00:26:57;;;;;;;1.80;1.70;;;2.50;98.20;;;;;;4996961;28;20484;-78
2022/12/06 00:29:24;;;;;;;1.67;1.43;;;2.50;98.20;;;;;;4981086;28;20472;-77
2022/12/06 00:31:51;;;;;;;1.70;1.50;;;2.50;98.20;;;;;;4988048;28;20468;-78
2022/12/06 00:34:17;;;;;;;1.63;1.50;;;2.50;98.20;;;;;;4991592;28;20544;-77
2022/12/06 00:36:44;;;;;;;1.67;1.40;;;2.50;98.20;;;;;;4990432;28;21033;-79
2022/12/06 00:39:14;;;;;;;1.63;1.50;;;2.50;98.20;;;;;;4992314;28;20467;-77
2022/12/06 00:41:42;;;;;;;1.67;1.50;;;2.50;98.20;;;;;;4988673;28;20835;-78
2022/12/06 00:44:10;;;;;;;1.70;1.50;;;2.50;98.20;;;;;;4990792;28;20461;-78
2022/12/06 00:46:37;;;;;;;1.67;1.50;;;2.50;98.20;;;;;;4986388;28;21072;-78
2022/12/06 00:49:06;;;;;;;1.67;1.47;;;2.50;98.20;;;;;;4990195;28;20465;-77
2022/12/06 00:51:34;;;;;;;1.70;1.40;;;2.50;98.20;;;;;;4990901;28;20469;-79
2022/12/06 00:54:01;;;;;;;1.70;1.40;;;2.60;98.20;;;;;;4990288;28;20461;-79
2022/12/06 00:56:29;;;;;;;1.63;1.50;;;2.60;98.20;;;;;;4989768;28;20493;-78
2022/12/06 00:58:56;;;;;;;1.63;1.40;;;2.60;98.20;;;;;;4984177;28;20959;-78
2022/12/06 01:01:24;;;;;;;1.70;1.57;;;2.60;98.20;;;;;;4986365;28;20540;-79
2022/12/06 01:03:53;;;;;;;1.70;1.50;;;2.60;98.20;;;;;;4990772;28;20468;-78
2022/12/06 01:06:22;;;;;;;1.60;1.40;;;2.60;98.20;;;;;;4990277;28;20480;-79
2022/12/06 01:08:50;;;;;;;1.70;1.43;;;2.60;98.20;;;;;;4991102;28;20465;-79
2022/12/06 01:11:17;;;;;;;1.60;1.40;;;2.60;98.20;;;;;;4990858;28;20465;-78
2022/12/06 01:13:45;;;;;;;1.67;1.40;;;2.60;98.20;;;;;;4991115;28;20484;-77
2022/12/06 01:16:15;;;;;;;1.67;1.50;;;2.60;98.20;;;;;;4988736;28;20612;-79
2022/12/06 01:18:44;;;;;;;1.70;1.50;;;2.60;98.20;;;;;;4991381;28;20461;-79
2022/12/06 01:21:12;;;;;;;1.63;1.40;;;2.60;98.20;;;;;;4989623;28;20864;-79
2022/12/06 01:23:39;;;;;;;1.70;1.57;;;2.60;98.20;;;;;;4991259;28;20461;-79
2022/12/06 01:26:08;;;;;;;1.70;1.50;;;2.60;98.20;;;;;;4991009;28;20504;-79
2022/12/06 01:28:35;;;;;;;1.63;1.40;;;2.60;98.20;;;;;;4988150;28;20457;-79
2022/12/06 01:31:08;;;;;;;1.70;1.50;;;2.70;98.20;;;;;;4982167;28;20958;-79
2022/12/06 01:33:35;;;;;;;1.70;1.50;;;2.70;98.20;;;;;;4991938;28;20453;-79
2022/12/06 01:36:02;;;;;;;1.70;1.47;;;2.70;98.20;;;;;;4990385;28;20584;-79
2022/12/06 01:38:29;;;;;;;1.67;1.50;;;2.70;98.20;;;;;;4990029;28;20459;-79
2022/12/06 01:40:56;;;;;;;1.70;1.57;;;2.70;98.20;;;;;;4986584;28;20462;-79
2022/12/06 01:43:35;;;;;;;1.70;1.53;;;2.70;98.20;;;;;;4980164;28;21102;-79
2022/12/06 01:46:10;;;;;;;1.67;1.40;;;2.70;98.20;;;;;;4989240;28;20495;-77
2022/12/06 01:48:37;;;;;;;1.67;1.40;;;2.70;98.20;;;;;;4988767;28;20460;-77
2022/12/06 01:51:08;;;;;;;1.70;1.57;;;2.70;98.20;;;;;;4992946;28;20564;-77
2022/12/06 01:53:36;;;;;;;1.70;1.53;;;2.70;98.20;;;;;;4994703;28;20469;-77
2022/12/06 01:56:03;;;;;;;1.63;1.40;;;2.70;98.20;;;;;;4991957;28;20527;-78
2022/12/06 01:58:36;;;;;;;1.67;1.40;;;2.70;98.20;;;;;;4988909;28;20544;-78
2022/12/06 02:01:03;;;;;;;1.60;1.40;;;2.80;98.20;;;;;;4983477;28;20962;-78
2022/12/06 02:03:33;;;;;;;1.63;1.40;;;2.80;98.20;;;;;;4994101;28;20485;-78
2022/12/06 02:06:03;;;;;;;1.70;1.50;;;2.70;98.20;;;;;;4991624;28;20484;-78
2022/12/06 02:08:31;;;;;;;1.70;1.50;;;2.70;98.20;;;;;;4994307;28;20461;-78
2022/12/06 02:10:59;;;;;;;1.63;1.40;;;2.80;98.20;;;;;;4993989;28;20866;-78
2022/12/06 02:13:26;;;;;;;1.70;1.40;;;2.80;98.20;;;;;;4995647;28;20522;-78
2022/12/06 02:16:01;;;;;;;1.67;1.47;;;2.80;98.20;;;;;;4992659;28;20485;-79
2022/12/06 02:18:36;;;;;;;1.70;1.50;;;2.80;98.20;;;;;;4991555;28;20468;-78
2022/12/06 02:21:12;;;;;;;1.70;1.50;;;2.80;98.20;;;;;;4991793;28;20471;-79
2022/12/06 02:24:01;;;;;;;1.70;1.47;;;2.80;98.20;;;;;;4990644;28;20476;-79
2022/12/06 02:26:35;;;;;;;1.70;1.50;;;2.80;98.20;;;;;;4990173;28;20477;-79
2022/12/06 02:29:46;;;;;;;1.60;1.40;;;2.80;98.20;;;;;;4991928;28;20465;-79
2022/12/06 02:32:21;;;;;;;1.70;1.50;;;2.80;98.20;;;;;;5037620;23;20518;-76
2022/12/06 02:34:55;;;;;;;1.70;1.43;;;2.80;98.20;;;;;;5005785;28;20459;-76
2022/12/06 02:37:28;;;;;;;2.30;2.10;;;2.90;98.20;;;;;;5009801;28;20538;-76
2022/12/06 02:39:59;;;;;;;1.63;1.40;;;2.90;98.20;;;;;;5011956;28;20460;-76
2022/12/06 02:42:31;;;;;;;1.63;1.40;;;2.90;98.20;;;;;;4999259;28;20485;-76
2022/12/06 02:45:02;;;;;;;1.60;1.40;;;2.90;98.20;;;;;;4995481;28;20462;-76
2022/12/06 02:47:35;;;;;;;1.70;1.53;;;2.90;98.20;;;;;;4998566;28;20461;-76
2022/12/06 02:50:06;;;;;;;1.70;1.50;;;2.90;98.20;;;;;;4997287;28;20461;-76
2022/12/06 02:52:38;;;;;;;1.60;1.40;;;2.90;98.20;;;;;;5001466;28;20480;-76
2022/12/06 02:55:08;;;;;;;1.70;1.60;;;2.90;98.20;;;;;;4992611;28;20467;-76
2022/12/06 02:57:41;;;;;;;1.70;1.50;;;2.90;98.20;;;;;;4985661;28;20492;-76
2022/12/06 03:00:30;;;;;;;1.70;1.60;;;2.90;98.20;;;;;;4988234;28;20468;-76
2022/12/06 03:03:04;;;;;;;1.67;1.50;;;2.90;98.20;;;;;;4988268;28;20476;-76
2022/12/06 03:05:39;;;;;;;1.60;1.40;;;2.90;98.20;;;;;;4982566;28;20468;-76
2022/12/06 03:08:13;;;;;;;1.70;1.43;;;2.90;98.20;;;;;;4988547;28;20452;-76
2022/12/06 03:10:45;;;;;;;1.80;1.70;;;2.90;98.20;;;;;;4986485;28;20465;-76
2022/12/06 03:13:16;;;;;;;1.60;1.40;;;2.90;98.20;;;;;;4985708;28;20441;-76
2022/12/06 03:15:50;;;;;;;1.70;1.50;;;3.00;98.20;;;;;;4993989;28;20457;-77
2022/12/06 03:18:28;;;;;;;1.70;1.40;;;3.00;98.20;;;;;;4988645;28;20453;-76
2022/12/06 03:20:59;;;;;;;1.70;1.60;;;3.00;98.20;;;;;;4984347;28;20484;-76
2022/12/06 03:23:31;;;;;;;1.70;1.60;;;3.00;98.20;;;;;;4991310;28;20506;-76
2022/12/06 03:26:00;;;;;;;1.70;1.50;;;3.00;98.20;;;;;;4987885;28;21133;-75
2022/12/06 03:28:29;;;;;;;1.63;1.40;;;3.00;98.20;;;;;;4988659;28;20465;-76
2022/12/06 03:31:00;;;;;;;1.70;1.50;;;3.00;98.20;;;;;;4987537;28;21077;-76
2022/12/06 03:33:32;;;;;;;1.73;1.63;;;3.00;98.20;;;;;;4988317;28;20473;-77
2022/12/06 03:36:00;;;;;;;1.67;1.50;;;3.00;98.20;;;;;;4988493;28;20464;-76
2022/12/06 03:38:32;;;;;;;5.80;5.50;;;3.10;98.20;;;;;;4989095;28;20950;-76
2022/12/06 03:41:04;;;;;;;1.63;1.40;;;3.10;98.20;;;;;;4987472;28;20492;-75
2022/12/06 03:43:32;;;;;;;1.70;1.50;;;3.10;98.20;;;;;;4986050;28;20468;-75
2022/12/06 03:46:06;;;;;;;1.70;1.60;;;3.10;98.20;;;;;;4986259;28;20468;-77
2022/12/06 03:48:39;;;;;;;1.70;1.50;;;3.10;98.20;;;;;;4988114;28;20477;-77
2022/12/06 03:51:08;;;;;;;1.80;1.70;;;3.10;98.20;;;;;;4988436;28;20490;-74
2022/12/06 03:53:44;;;;;;;1.70;1.60;;;3.10;98.20;;;;;;4988786;28;21022;-77
2022/12/06 03:56:10;;;;;;;1.70;1.40;;;3.10;98.20;;;;;;4988184;28;20475;-76
2022/12/06 03:58:37;;;;;;;1.67;1.40;;;3.10;98.20;;;;;;4988625;28;20461;-77
2022/12/06 04:01:04;;;;;;;1.70;1.60;;;3.10;98.20;;;;;;4988399;28;20508;-75
2022/12/06 04:03:31;;;;;;;1.67;1.40;;;3.10;98.20;;;;;;4990120;28;20465;-76
2022/12/06 04:06:01;;;;;;;1.70;1.60;;;3.10;98.20;;;;;;4988334;28;20519;-76
2022/12/06 04:08:28;;;;;;;1.67;1.40;;;3.10;98.20;;;;;;4985537;28;20560;-76
2022/12/06 04:10:55;;;;;;;1.70;1.53;;;3.10;98.20;;;;;;4988423;28;20488;-77
2022/12/06 04:13:22;;;;;;;1.67;1.40;;;3.20;98.20;;;;;;4989300;28;21103;-76
2022/12/06 04:15:48;;;;;;;1.70;1.50;;;3.20;98.20;;;;;;4988664;28;20973;-76
2022/12/06 04:18:17;;;;;;;1.70;1.50;;;3.20;98.20;;;;;;4990830;28;20488;-76
2022/12/06 04:23:34;;;;;;;1.67;1.50;;;3.20;98.20;;;;;;4988918;28;21172;-75
2022/12/06 04:26:01;;;;;;;2.23;2.03;;;3.20;98.20;;;;;;4987131;28;20480;-75
2022/12/06 04:39:28;;;;;;;1.63;1.50;;;3.30;98.20;;;;;;4993900;28;20500;-78
2022/12/06 04:44:39;;;;;;;1.70;1.40;;;3.30;98.20;;;;;;4986216;28;20472;-78
2022/12/06 04:47:07;;;;;;;1.63;1.43;;;3.30;98.20;;;;;;4993014;28;20460;-77
2022/12/06 04:49:34;;;;;;;1.60;1.40;;;3.30;98.20;;;;;;4988010;28;20842;-78
2022/12/06 04:52:02;;;;;;;1.63;1.40;;;3.30;98.20;;;;;;4990591;28;21257;-79
2022/12/06 04:54:30;;;;;;;1.70;1.53;;;3.40;98.20;;;;;;4979566;28;20462;-77
2022/12/06 04:56:57;;;;;;;1.70;1.50;;;3.40;98.20;;;;;;4981825;28;20485;-80
2022/12/06 04:59:25;;;;;;;1.67;1.37;;;3.40;98.20;;;;;;4986412;28;20470;-79
2022/12/06 05:01:52;;;;;;;1.70;1.40;;;3.40;98.20;;;;;;4987070;28;20492;-78
2022/12/06 05:04:18;;;;;;;1.70;1.40;;;3.40;98.20;;;;;;4981333;28;20472;-79
2022/12/06 05:06:45;;;;;;;1.60;1.40;;;3.50;98.20;;;;;;4977050;28;20458;-81
2022/12/06 05:09:13;;;;;;;1.70;1.50;;;3.40;98.20;;;;;;4981995;28;20471;-77
2022/12/06 05:11:41;;;;;;;1.67;1.40;;;3.50;98.20;;;;;;4986254;28;20493;-80
2022/12/06 05:14:08;;;;;;;1.70;1.40;;;3.50;98.20;;;;;;4984273;28;20464;-77
2022/12/06 05:16:34;;;;;;;1.60;1.40;;;3.50;98.20;;;;;;4979015;28;21109;-75
2022/12/06 05:19:01;;;;;;;1.63;1.40;;;3.50;98.20;;;;;;4981519;28;20467;-79
2022/12/06 05:21:28;;;;;;;1.60;1.40;;;3.50;98.20;;;;;;4991215;28;20662;-78
2022/12/06 05:23:56;;;;;;;1.60;1.40;;;3.60;98.20;;;;;;4982394;28;20578;-76
2022/12/06 05:26:24;;;;;;;1.63;1.30;;;3.60;98.20;;;;;;4983744;28;20461;-77
2022/12/06 05:28:53;;;;;;;1.70;1.50;;;3.60;98.20;;;;;;4986816;28;20486;-78
2022/12/06 05:31:21;;;;;;;1.70;1.40;;;3.60;98.20;;;;;;4987298;28;20540;-79
2022/12/06 05:33:49;;;;;;;1.73;1.63;;;3.60;98.20;;;;;;4993012;28;20843;-81
2022/12/06 05:36:18;;;;;;;1.70;1.40;;;3.60;98.20;;;;;;5000188;28;20500;-78
2022/12/06 05:38:45;;;;;;;1.60;1.40;;;3.70;98.20;;;;;;4983671;28;20490;-78
2022/12/06 05:41:12;;;;;;;1.70;1.40;;;3.70;98.20;;;;;;4986771;28;20486;-78
2022/12/06 05:43:39;;;;;;;1.70;1.60;;;3.70;98.20;;;;;;4984756;28;20537;-78
2022/12/06 05:46:07;;;;;;;1.63;1.40;;;3.70;98.20;;;;;;4987059;28;20456;-76
2022/12/06 05:48:34;;;;;;;1.60;1.40;;;3.70;98.20;;;;;;4981271;28;20457;-76
2022/12/06 05:51:01;;;;;;;1.70;1.53;;;3.70;98.20;;;;;;4989024;28;20492;-79
2022/12/06 05:53:28;;;;;;;1.70;1.40;;;3.80;98.20;;;;;;4986142;28;20472;-79
2022/12/06 05:55:55;;;;;;;1.70;1.40;;;3.80;98.20;;;;;;4988228;28;20999;-79
2022/12/06 05:58:22;;;;;;;1.70;1.50;;;3.80;98.20;;;;;;4987649;28;21046;-77
2022/12/06 06:00:49;;;;;;;1.60;1.40;;;3.80;98.20;;;;;;4984931;28;20492;-77
2022/12/06 06:03:18;;;;;;;1.63;1.40;;;3.80;98.20;;;;;;4984757;28;20466;-77
2022/12/06 06:05:46;;;;;;;1.70;1.40;;;3.90;98.20;;;;;;4983730;28;20462;-77
2022/12/06 06:08:14;;;;;;;1.63;1.30;;;3.90;98.20;;;;;;4980757;28;21178;-77
2022/12/06 06:10:41;;;;;;;1.63;1.40;;;3.90;98.20;;;;;;4985565;28;20618;-79
2022/12/06 06:13:08;;;;;;;1.70;1.60;;;3.90;98.20;;;;;;4988178;28;20473;-80
2022/12/06 06:15:35;;;;;;;1.63;1.40;;;3.90;98.20;;;;;;4985852;28;20891;-79
2022/12/06 06:18:02;;;;;;;1.70;1.57;;;4.00;98.20;;;;;;4978145;28;20573;-77
2022/12/06 06:20:30;;;;;;;1.67;1.40;;;4.00;98.20;;;;;;4983035;28;21073;-78
2022/12/06 06:22:57;;;;;;;1.70;1.50;;;4.00;98.20;;;;;;4984665;28;20506;-79
2022/12/06 06:25:24;;;;;;;1.70;1.43;;;4.00;98.20;;;;;;4986542;28;20492;-81
2022/12/06 06:27:52;;;;;;;1.70;1.40;;;4.00;98.20;;;;;;4979339;28;20469;-77
2022/12/06 06:30:18;;;;;;;1.70;1.50;;;4.00;98.20;;;;;;4986128;28;20973;-80
2022/12/06 06:32:45;;;;;;;1.70;1.40;;;4.00;98.20;;;;;;4985828;28;20496;-78
2022/12/06 06:35:12;;;;;;;1.67;1.40;;;4.00;98.20;;;;;;4984136;28;20465;-77
2022/12/06 06:37:40;;;;;;;1.67;1.40;;;4.10;98.20;;;;;;4980789;28;21060;-77
2022/12/06 06:40:10;;;;;;;1.67;1.40;;;4.10;98.20;;;;;;4977243;28;20465;-75
2022/12/06 06:42:37;;;;;;;1.70;1.40;;;4.10;98.20;;;;;;4978786;28;20485;-75
2022/12/06 06:45:04;;;;;;;1.60;1.40;;;4.10;98.20;;;;;;4980814;28;20469;-77
2022/12/06 06:47:31;;;;;;;1.67;1.40;;;4.10;98.20;;;;;;4974336;28;20478;-78
2022/12/06 06:49:57;;;;;;;1.70;1.40;;;4.10;98.20;;;;;;4976634;28;21070;-75
2022/12/06 06:52:24;;;;;;;1.70;1.30;;;4.10;98.20;;;;;;4976860;28;20935;-75
2022/12/06 06:54:52;;;;;;;1.70;1.50;;;4.20;98.20;;;;;;4975878;28;20471;-75
2022/12/06 06:57:19;;;;;;;1.70;1.53;;;4.20;98.20;;;;;;4974110;28;20486;-75
2022/12/06 06:59:46;;;;;;;1.67;1.30;;;4.20;98.20;;;;;;4978315;28;20479;-77
2022/12/06 07:02:13;;;;;;;1.60;1.30;;;4.20;98.20;;;;;;4975877;28;20593;-76
2022/12/06 07:04:41;;;;;;;1.63;1.40;;;4.20;98.20;;;;;;4981136;28;20808;-78
2022/12/06 07:07:08;;;;;;;1.63;1.40;;;4.20;98.20;;;;;;4974931;28;20874;-78
2022/12/06 07:09:35;;;;;;;1.70;1.50;;;4.20;98.20;;;;;;4977660;28;20475;-77
2022/12/06 07:12:03;;;;;;;1.67;1.30;;;4.20;98.20;;;;;;4975378;28;20496;-76
2022/12/06 07:14:30;;;;;;;1.60;1.40;;;4.20;98.20;;;;;;4977058;28;20467;-75
2022/12/06 07:16:57;;;;;;;1.63;1.40;;;4.20;98.20;;;;;;4972267;28;20961;-75
2022/12/06 07:19:24;;;;;;;1.60;1.30;;;4.30;98.20;;;;;;4975643;28;20554;-75
2022/12/06 07:21:51;;;;;;;1.60;1.30;;;4.30;98.20;;;;;;4976340;28;20496;-75
2022/12/06 07:24:17;;;;;;;1.67;1.40;;;4.30;98.20;;;;;;4980794;28;20462;-74
2022/12/06 07:26:44;;;;;;;1.70;1.40;;;4.30;98.20;;;;;;4975922;28;20461;-75
2022/12/06 07:29:12;;;;;;;1.63;1.30;;;4.40;98.20;;;;;;4975608;28;20483;-76
2022/12/06 07:31:40;;;;;;;1.70;1.47;;;4.40;98.20;;;;;;4973399;28;20497;-76
2022/12/06 07:34:06;;;;;;;1.70;1.50;;;4.40;98.20;;;;;;4978246;28;21025;-76
2022/12/06 07:36:33;;;;;;;1.63;1.40;;;4.40;98.20;;;;;;4975213;28;20959;-78
2022/12/06 07:39:01;;;;;;;1.70;1.43;;;4.40;98.20;;;;;;4976735;28;20489;-76
2022/12/06 07:47:01;;;;;;;1.70;1.40;;;4.50;98.20;;;;;;4975904;28;20602;-76
2022/12/06 07:49:29;;;;;;;1.70;1.50;;;4.50;98.20;;;;;;4979908;28;20477;-77
2022/12/06 07:51:57;;;;;;;1.70;1.50;;;4.50;98.20;;;;;;4982851;28;20515;-74
2022/12/06 07:54:24;;;;;;;1.60;1.30;;;4.50;98.20;;;;;;4970921;28;20849;-76
2022/12/06 07:56:51;;;;;;;1.63;1.33;;;4.50;98.20;;;;;;4970778;28;20940;-77
2022/12/06 07:59:20;;;;;;;1.60;1.30;;;4.50;98.20;;;;;;4973995;28;20493;-76
2022/12/06 08:01:46;;;;;;;1.60;1.30;;;4.60;98.20;;;;;;4977490;28;20485;-77
2022/12/06 08:04:13;;;;;;;1.70;1.50;;;4.60;98.20;;;;;;4973542;28;20485;-78
2022/12/06 08:06:40;;;;;;;1.67;1.40;;;4.60;98.20;;;;;;4978090;28;20476;-76
2022/12/06 08:09:07;;;;;;;1.70;1.40;;;4.60;98.20;;;;;;4978652;28;20457;-76
2022/12/06 08:11:35;;;;;;;1.70;1.47;;;4.60;98.20;;;;;;4974752;28;20484;-75
2022/12/06 08:14:02;;;;;;;1.70;1.50;;;4.70;98.20;;;;;;4978528;28;20466;-76
2022/12/06 08:16:30;;;;;;;1.70;1.40;;;4.70;98.20;;;;;;4975879;28;20466;-76
2022/12/06 08:18:57;;;;;;;1.70;1.40;;;4.70;98.20;;;;;;4976920;28;20495;-76
2022/12/06 08:21:25;;;;;;;1.70;1.40;;;4.70;98.20;;;;;;4975899;28;20569;-77
2022/12/06 08:23:53;;;;;;;1.70;1.43;;;4.70;98.20;;;;;;4977416;28;20484;-76
2022/12/06 08:26:21;;;;;;;1.70;1.50;;;4.80;98.20;;;;;;4973163;28;21424;-77
2022/12/06 08:28:47;;;;;;;1.63;1.30;;;4.80;98.20;;;;;;4978098;28;20466;-76
2022/12/06 08:31:16;;;;;;;1.63;1.37;;;4.80;98.20;;;;;;4980413;28;20497;-76
2022/12/06 08:33:45;;;;;;;1.63;1.30;;;4.80;98.20;;;;;;4976662;28;20544;-76
2022/12/06 08:36:14;;;;;;;1.60;1.30;;;4.80;98.20;;;;;;4978941;28;20468;-77
2022/12/06 08:38:42;;;;;;;1.67;1.40;;;4.80;98.20;;;;;;4973177;28;20490;-76
2022/12/06 08:41:54;;;;;;;1.70;1.40;;;4.90;98.20;;;;;;4974640;28;20525;-77
2022/12/06 08:43:58;;;;;;;1.70;1.50;;;4.90;98.20;;;;;;4974251;28;20886;-76
2022/12/06 08:46:25;;;;;;;1.70;1.43;;;4.90;98.20;;;;;;4976357;28;21235;-75
2022/12/06 08:48:53;;;;;;;1.63;1.30;;;4.90;98.20;;;;;;4973059;28;20477;-76
2022/12/06 08:51:20;;;;;;;1.70;1.50;;;4.90;98.20;;;;;;4976293;28;20485;-76
2022/12/06 08:53:47;;;;;;;1.70;1.40;;;4.90;98.20;;;;;;4975334;28;20604;-75
2022/12/06 08:56:15;;;;;;;1.70;1.50;;;5.00;98.20;;;;;;4973011;28;20466;-75
2022/12/06 08:58:41;;;;;;;1.70;1.43;;;5.00;98.20;;;;;;4979544;28;20495;-76
2022/12/06 09:01:16;;;;;;;1.70;1.40;;;5.00;98.20;;;;;;4976408;28;20576;-75
2022/12/06 09:03:44;;;;;;;1.70;1.40;;;5.00;98.20;;;;;;4976858;28;20558;-74
2022/12/06 09:06:12;;;;;;;1.70;1.50;;;5.10;98.20;;;;;;4985855;28;20464;-76
2022/12/06 09:08:39;;;;;;;1.70;1.60;;;5.10;98.20;;;;;;4986968;28;20864;-76
2022/12/06 09:11:07;;;;;;;1.67;1.40;;;5.10;98.20;;;;;;4980287;28;20486;-75
2022/12/06 09:13:35;;;;;;;1.63;1.40;;;5.10;98.20;;;;;;4977353;28;20489;-76
2022/12/06 09:16:06;;;;;;;1.67;1.30;;;5.20;98.20;;;;;;4974672;28;20469;-76
2022/12/06 09:18:33;;;;;;;1.70;1.37;;;5.20;98.20;;;;;;4977990;28;20495;-75
2022/12/06 09:21:03;;;;;;;1.63;1.40;;;5.20;98.20;;;;;;4975918;28;20505;-77
2022/12/06 09:23:32;;;;;;;1.70;1.40;;;5.20;98.20;;;;;;4982055;28;20470;-77
2022/12/06 09:25:59;;;;;;;1.67;1.30;;;5.30;98.20;;;;;;4977043;28;20921;-76
2022/12/06 09:28:26;;;;;;;1.70;1.50;;;5.30;98.20;;;;;;4979578;28;20464;-77
2022/12/06 09:30:52;;;;;;;1.60;1.30;;;5.30;98.20;;;;;;4979459;28;20751;-76
2022/12/06 09:33:21;;;;;;;5.47;4.60;;;5.40;98.20;;;;;;4979701;28;20482;-76
2022/12/06 09:35:49;;;;;;;1.70;1.30;;;5.40;98.20;;;;;;4980973;28;20526;-76
2022/12/06 09:38:16;;;;;;;1.60;1.30;;;5.40;98.20;;;;;;4975799;28;20500;-75
2022/12/06 09:40:53;;;;;;;1.70;1.30;;;5.40;98.20;;;;;;4980744;28;20840;-76
2022/12/06 09:43:33;;;;;;;1.70;1.30;;;5.40;98.20;;;;;;4982089;28;20499;-76
2022/12/06 09:46:29;;;;;;;1.70;1.50;;;5.50;98.20;;;;;;4976697;28;20499;-74
2022/12/06 09:49:14;;;;;;;1.67;1.27;;;5.40;98.20;;;;;;4976752;28;20481;-76
2022/12/06 09:51:55;;;;;;;2.23;2.03;;;5.50;98.20;;;;;;4975465;28;20489;-75
2022/12/06 09:54:37;;;;;;;1.67;1.30;;;5.50;98.20;;;;;;4976707;28;20477;-76
2022/12/06 09:57:13;;;;;;;1.63;1.40;;;5.50;98.20;;;;;;4978373;28;21081;-76
2022/12/06 09:59:50;;;;;;;1.70;1.40;;;5.50;98.20;;;;;;4977802;28;20542;-76
2022/12/06 10:02:30;;;;;;;3.53;3.20;;;5.50;98.20;;;;;;4978596;28;20484;-76
2022/12/06 10:05:11;;;;;;;1.70;1.30;;;5.50;98.20;;;;;;4976313;28;20487;-75
2022/12/06 10:07:50;;;;;;;1.70;1.53;;;5.50;98.20;;;;;;4976950;28;20980;-76
2022/12/06 10:10:25;;;;;;;1.70;1.60;;;5.60;98.20;;;;;;4977624;28;20853;-76
2022/12/06 10:13:03;;;;;;;1.70;1.40;;;5.60;98.20;;;;;;4975195;28;20496;-76
2022/12/06 10:15:45;;;;;;;1.70;1.40;;;5.60;98.20;;;;;;4977483;28;20583;-76
2022/12/06 10:18:27;;;;;;;1.67;1.40;;;5.60;98.20;;;;;;4978286;28;20504;-77
2022/12/06 10:21:01;;;;;;;1.70;1.40;;;5.70;98.20;;;;;;4981746;28;20500;-77
2022/12/06 10:23:43;;;;;;;1.70;1.40;;;5.70;98.20;;;;;;4977048;28;20621;-76
2022/12/06 10:26:15;;;;;;;1.60;1.20;;;5.70;98.20;;;;;;4977452;28;20911;-75
2022/12/06 10:28:47;;;;;;;1.70;1.40;;;5.70;98.20;;;;;;4978098;28;20961;-74
2022/12/06 10:31:22;;;;;;;1.67;1.30;;;5.70;98.20;;;;;;4973962;28;20896;-76
2022/12/06 10:33:55;;;;;;;1.70;1.40;;;5.70;98.20;;;;;;4980243;28;20461;-75
2022/12/06 10:36:36;;;;;;;1.70;1.40;;;5.70;98.20;;;;;;4976580;28;20512;-75
2022/12/06 10:39:11;;;;;;;1.70;1.30;;;5.80;98.20;;;;;;4973742;28;20490;-76
2022/12/06 10:41:43;;;;;;;1.70;1.43;;;5.70;98.20;;;;;;4976095;28;20492;-75
2022/12/06 10:44:19;;;;;;;1.70;1.40;;;5.80;98.20;;;;;;4983272;28;20461;-74
2022/12/06 10:47:03;;;;;;;1.63;1.27;;;5.70;98.20;;;;;;4975033;28;20461;-74
2022/12/06 10:49:37;;;;;;;2.73;2.27;;;5.80;98.20;;;;;;4970462;28;20468;-74
2022/12/06 10:52:12;;;;;;;1.63;1.30;;;5.80;98.20;;;;;;4971974;28;20484;-75
2022/12/06 10:54:44;;;;;;;1.70;1.40;;;5.80;98.20;;;;;;4977425;28;20477;-76
2022/12/06 10:57:17;;;;;;;1.67;1.40;;;5.90;98.20;;;;;;4976030;28;20475;-76
2022/12/06 10:59:53;;;;;;;1.63;1.30;;;5.90;98.20;;;;;;4975111;28;20496;-75
2022/12/06 11:02:27;;;;;;;1.70;1.40;;;5.90;98.20;;;;;;4974563;28;20490;-75
2022/12/06 11:04:58;;;;;;;1.70;1.40;;;5.90;98.20;;;;;;4976577;28;20473;-75
2022/12/06 11:07:31;;;;;;;1.70;1.37;;;5.90;98.20;;;;;;4970430;28;20477;-74
2022/12/06 11:09:59;;;;;;;1.63;1.30;;;5.90;98.20;;;;;;4975061;28;20832;-75
2022/12/06 11:12:32;;;;;;;1.60;1.30;;;5.90;98.20;;;;;;4971980;28;20482;-75
2022/12/06 11:15:07;;;;;;;1.70;1.40;;;5.90;98.20;;;;;;4978050;28;20466;-75
2022/12/06 11:17:39;;;;;;;1.70;1.50;;;5.90;98.20;;;;;;4975419;28;20719;-78
2022/12/06 11:20:22;;;;;;;1.60;1.27;;;6.00;98.20;;;;;;4977018;28;20481;-76
2022/12/06 11:23:04;;;;;;;1.70;1.50;;;6.00;98.20;;;;;;4974796;28;20488;-76
2022/12/06 11:25:43;;;;;;;1.70;1.37;;;6.00;98.20;;;;;;4976239;28;20465;-76
2022/12/06 11:28:22;;;;;;;1.60;1.30;;;6.00;98.20;;;;;;4977842;28;20461;-75
2022/12/06 11:30:54;;;;;;;1.63;1.30;;;6.00;98.20;;;;;;4976516;28;20579;-76
2022/12/06 11:33:26;;;;;;;1.60;1.30;;;6.00;98.20;;;;;;4977878;28;20481;-76
2022/12/06 11:35:53;;;;;;;1.63;1.30;;;6.10;98.20;;;;;;4976705;28;20458;-75
2022/12/06 11:38:20;;;;;;;1.63;1.30;;;6.10;98.20;;;;;;4976397;28;20469;-75
2022/12/06 11:40:50;;;;;;;1.70;1.40;;;6.10;98.20;;;;;;4975115;28;20544;-75
2022/12/06 11:43:22;;;;;;;1.60;1.30;;;6.10;98.20;;;;;;4974672;28;20466;-77
2022/12/06 11:45:51;;;;;;;1.70;1.40;;;6.20;98.20;;;;;;4971300;28;20476;-75
2022/12/06 11:48:21;;;;;;;1.60;1.30;;;6.20;98.20;;;;;;4974433;28;20473;-74
2022/12/06 11:50:49;;;;;;;1.60;1.30;;;6.30;98.20;;;;;;4979345;28;20547;-74
2022/12/06 11:53:24;;;;;;;1.63;1.30;;;6.30;98.20;;;;;;4977715;28;20830;-74
2022/12/06 11:55:54;;;;;;;1.70;1.30;;;6.40;98.20;;;;;;4983743;28;20468;-74
2022/12/06 11:58:28;;;;;;;1.60;1.30;;;6.40;98.20;;;;;;4969584;28;20980;-75
2022/12/06 12:01:00;;;;;;;1.67;1.30;;;6.40;98.20;;;;;;4974571;28;20484;-75
2022/12/06 12:03:29;;;;;;;1.63;1.33;;;6.50;98.20;;;;;;4972324;28;20494;-76
2022/12/06 12:06:19;;;;;;;1.60;1.20;;;6.50;98.20;;;;;;4974788;28;21241;-77
2022/12/06 12:08:56;;;;;;;1.60;1.30;;;6.60;98.20;;;;;;4977692;28;20461;-75
2022/12/06 12:11:26;;;;;;;1.70;1.30;;;6.60;98.20;;;;;;4972614;28;20513;-75
2022/12/06 12:13:57;;;;;;;1.70;1.30;;;6.70;98.20;;;;;;4972181;28;20465;-76
2022/12/06 12:16:29;;;;;;;1.70;1.30;;;6.70;98.20;;;;;;4974656;28;20557;-76
2022/12/06 12:18:58;;;;;;;1.63;1.20;;;6.80;98.20;;;;;;4977188;28;20994;-74
2022/12/06 12:21:32;;;;;;;1.60;1.30;;;6.80;98.20;;;;;;4970854;28;20535;-76
2022/12/06 12:23:59;;;;;;;1.67;1.30;;;6.80;98.20;;;;;;4976053;28;20959;-76
2022/12/06 12:26:37;;;;;;;1.70;1.40;;;6.80;98.20;;;;;;4974352;28;20466;-74
2022/12/06 12:29:14;;;;;;;1.60;1.30;;;6.80;98.20;;;;;;4972795;28;20461;-74
2022/12/06 12:31:57;;;;;;;1.67;1.33;;;6.90;98.20;;;;;;4971216;28;20493;-74
2022/12/06 12:34:26;;;;;;;1.60;1.20;;;6.90;98.20;;;;;;4971696;28;20472;-74
2022/12/06 12:36:57;;;;;;;1.60;1.20;;;6.90;98.20;;;;;;4973851;28;20474;-74
2022/12/06 12:39:31;;;;;;;1.67;1.20;;;6.90;98.20;;;;;;4968083;28;21000;-76
2022/12/06 12:41:58;;;;;;;1.70;1.30;;;6.90;98.20;;;;;;4970642;28;20868;-76
2022/12/06 12:44:27;;;;;;;1.70;1.33;;;6.90;98.20;;;;;;4968808;28;20469;-74
2022/12/06 12:46:57;;;;;;;1.63;1.30;;;6.90;98.20;;;;;;4970519;28;21116;-74
2022/12/06 12:49:30;;;;;;;1.60;1.30;;;6.90;98.20;;;;;;4972632;28;20998;-75
2022/12/06 12:51:58;;;;;;;1.60;1.20;;;6.90;98.20;;;;;;4978251;28;20486;-75
2022/12/06 12:54:28;;;;;;;1.60;1.20;;;6.90;98.20;;;;;;4974382;28;20955;-75
2022/12/06 12:56:56;;;;;;;1.63;1.20;;;6.90;98.20;;;;;;4974476;28;20465;-75
2022/12/06 12:59:25;;;;;;;1.63;1.20;;;6.90;98.20;;;;;;4967184;28;20591;-76
2022/12/06 13:01:58;;;;;;;1.70;1.30;;;7.00;98.20;;;;;;4968879;28;20496;-76
2022/12/06 13:04:36;;;;;;;1.70;1.30;;;7.00;98.20;;;;;;4967993;28;20480;-76
2022/12/06 13:07:06;;;;;;;1.70;1.40;;;7.00;98.20;;;;;;4974540;28;20466;-76
2022/12/06 13:09:43;;;;;;;1.70;1.40;;;7.00;98.20;;;;;;4970131;28;21101;-75
2022/12/06 13:12:16;;;;;;;1.70;1.37;;;6.90;98.20;;;;;;4971288;28;20758;-79
2022/12/06 13:14:51;;;;;;;1.70;1.43;;;6.90;98.20;;;;;;4972284;28;20481;-76
2022/12/06 13:17:23;;;;;;;1.70;1.37;;;7.00;98.20;;;;;;4967402;28;21007;-75
2022/12/06 13:19:50;;;;;;;1.70;1.30;;;7.00;98.20;;;;;;4976138;28;20500;-74
2022/12/06 13:22:22;;;;;;;1.70;1.30;;;7.00;98.20;;;;;;4971420;28;20516;-74
2022/12/06 13:24:57;;;;;;;1.63;1.30;;;7.00;98.20;;;;;;4970976;28;20505;-74
2022/12/06 13:27:26;;;;;;;1.63;1.20;;;7.00;98.20;;;;;;4968356;28;20552;-74
2022/12/06 13:29:58;;;;;;;1.63;1.20;;;7.10;98.20;;;;;;4969046;28;21284;-74
2022/12/06 13:32:31;;;;;;;1.70;1.37;;;7.10;98.20;;;;;;4968118;28;20875;-74
2022/12/06 13:35:02;;;;;;;1.60;1.20;;;7.10;98.20;;;;;;4971213;28;20581;-74
2022/12/06 13:37:34;;;;;;;1.70;1.40;;;7.10;98.20;;;;;;4968772;28;20474;-75